createdAt,value
2019-05-11T00:01:57.299Z,55.80
2019-05-11T00:04:25.745Z,55.80
2019-05-11T00:06:54.118Z,55.80
2019-05-11T00:09:22.463Z,55.80
2019-05-11T00:11:50.828Z,55.80
2019-05-11T00:14:19.180Z,55.80
2019-05-11T00:16:47.525Z,55.90
2019-05-11T00:19:15.961Z,55.90
2019-05-11T00:21:44.311Z,55.90
2019-05-11T00:24:12.676Z,55.90
2019-05-11T00:26:41.020Z,56.00
2019-05-11T00:29:09.384Z,56.00
2019-05-11T00:31:37.747Z,55.90
2019-05-11T00:34:06.095Z,55.90
2019-05-11T00:36:34.455Z,55.90
2019-05-11T00:39:02.815Z,55.90
2019-05-11T00:41:31.175Z,56.10
2019-05-11T00:43:59.519Z,56.10
2019-05-11T00:46:27.885Z,56.10
2019-05-11T00:48:56.232Z,56.10
2019-05-11T00:51:24.596Z,56.10
2019-05-11T00:53:53.034Z,56.10
2019-05-11T00:56:21.394Z,56.10
2019-05-11T00:58:51.013Z,56.10
2019-05-11T01:01:19.704Z,56.20
2019-05-11T01:03:48.062Z,56.20
2019-05-11T01:06:16.424Z,56.30
2019-05-11T01:08:44.771Z,56.30
2019-05-11T01:11:13.141Z,56.40
2019-05-11T01:13:41.493Z,56.40
2019-05-11T01:16:09.844Z,56.40
2019-05-11T01:18:38.216Z,56.40
2019-05-11T01:21:06.572Z,56.50
2019-05-11T01:23:34.932Z,56.60
2019-05-11T01:26:03.291Z,56.60
2019-05-11T01:28:31.642Z,56.60
2019-05-11T01:31:00.120Z,56.60
2019-05-11T01:33:28.494Z,56.60
2019-05-11T01:35:58.629Z,56.60
2019-05-11T01:38:27.023Z,56.70
2019-05-11T01:40:58.757Z,56.70
2019-05-11T01:43:25.401Z,56.80
2019-05-11T01:45:53.824Z,56.80
2019-05-11T01:48:22.195Z,56.80
2019-05-11T01:50:50.544Z,56.80
2019-05-11T01:53:18.897Z,56.80
2019-05-11T01:55:47.268Z,56.80
2019-05-11T01:58:15.620Z,56.80
2019-05-11T02:00:44.171Z,56.80
2019-05-11T02:03:12.645Z,56.80
2019-05-11T02:05:40.997Z,56.80
2019-05-11T02:08:09.375Z,56.70
2019-05-11T02:10:37.716Z,56.80
2019-05-11T02:13:06.092Z,56.80
2019-05-11T02:15:34.429Z,56.80
2019-05-11T02:18:02.794Z,56.90
2019-05-11T02:20:31.152Z,57.00
2019-05-11T02:22:59.502Z,57.00
2019-05-11T02:25:27.863Z,57.00
2019-05-11T02:27:56.212Z,57.00
2019-05-11T02:30:24.582Z,57.00
2019-05-11T02:32:52.950Z,57.60
2019-05-11T02:35:21.309Z,57.00
2019-05-11T02:37:49.662Z,57.00
2019-05-11T02:40:18.090Z,56.90
2019-05-11T02:42:46.439Z,56.80
2019-05-11T02:45:14.788Z,56.80
2019-05-11T02:47:43.153Z,56.80
2019-05-11T02:50:11.573Z,56.80
2019-05-11T02:52:40.314Z,56.70
2019-05-11T02:55:08.675Z,56.80
2019-05-11T02:57:37.012Z,56.80
2019-05-11T03:00:08.896Z,56.70
2019-05-11T03:02:37.244Z,56.60
2019-05-11T03:05:07.081Z,56.60
2019-05-11T03:07:35.425Z,56.60
2019-05-11T03:10:04.267Z,56.70
2019-05-11T03:12:32.629Z,56.70
2019-05-11T03:15:00.973Z,56.70
2019-05-11T03:17:30.981Z,56.70
2019-05-11T03:19:59.343Z,56.80
2019-05-11T03:22:27.706Z,56.80
2019-05-11T03:24:56.052Z,56.80
2019-05-11T03:27:24.420Z,56.80
2019-05-11T03:29:53.065Z,56.80
2019-05-11T03:32:21.397Z,56.80
2019-05-11T03:34:49.753Z,56.80
2019-05-11T03:37:18.123Z,56.80
2019-05-11T03:39:46.476Z,56.90
2019-05-11T03:42:15.470Z,57.00
2019-05-11T03:44:44.020Z,57.00
2019-05-11T03:47:12.356Z,57.10
2019-05-11T03:49:40.726Z,57.00
2019-05-11T03:52:09.071Z,57.10
2019-05-11T03:54:37.443Z,57.70
2019-05-11T03:57:05.793Z,57.20
2019-05-11T03:59:34.137Z,57.30
2019-05-11T04:02:02.509Z,57.40
2019-05-11T04:04:30.861Z,57.40
2019-05-11T04:06:59.208Z,57.50
2019-05-11T04:09:27.569Z,57.30
2019-05-11T04:11:55.947Z,57.60
2019-05-11T04:14:24.301Z,57.60
2019-05-11T04:16:52.644Z,57.60
2019-05-11T04:19:21.010Z,57.60
2019-05-11T04:21:49.373Z,57.60
2019-05-11T04:24:17.727Z,57.70
2019-05-11T04:26:46.092Z,57.80
2019-05-11T04:29:14.460Z,57.80
2019-05-11T04:31:42.823Z,57.80
2019-05-11T04:34:11.181Z,58.00
2019-05-11T04:36:39.540Z,57.90
2019-05-11T04:39:07.918Z,58.00
2019-05-11T04:41:36.281Z,58.00
2019-05-11T04:44:04.658Z,58.00
2019-05-11T04:46:32.989Z,57.90
2019-05-11T04:49:01.366Z,57.80
2019-05-11T04:51:29.737Z,57.90
2019-05-11T04:53:58.102Z,57.80
2019-05-11T04:56:26.453Z,57.70
2019-05-11T04:58:54.806Z,57.80
2019-05-11T05:01:23.173Z,57.90
2019-05-11T05:03:54.480Z,58.00
2019-05-11T05:06:23.993Z,58.10
2019-05-11T05:08:51.549Z,58.60
2019-05-11T05:11:19.897Z,60.60
2019-05-11T05:13:48.268Z,61.70
2019-05-11T05:16:16.615Z,63.20
2019-05-11T05:18:44.988Z,65.30
2019-05-11T05:21:13.336Z,67.20
2019-05-11T05:23:41.706Z,65.60
2019-05-11T05:26:10.070Z,64.40
2019-05-11T05:28:38.420Z,63.90
2019-05-11T05:31:06.792Z,63.90
2019-05-11T05:33:35.146Z,64.40
2019-05-11T05:36:03.520Z,62.20
2019-05-11T05:38:31.876Z,60.60
2019-05-11T05:41:00.239Z,59.60
2019-05-11T05:43:28.761Z,58.80
2019-05-11T05:45:57.276Z,58.30
2019-05-11T05:48:25.659Z,58.20
2019-05-11T05:50:54.012Z,58.40
2019-05-11T05:53:22.376Z,58.50
2019-05-11T05:55:50.744Z,58.50
2019-05-11T05:58:19.115Z,58.40
2019-05-11T06:00:47.466Z,58.30
2019-05-11T06:03:15.818Z,58.50
2019-05-11T06:05:44.195Z,58.40
2019-05-11T06:08:12.583Z,58.60
2019-05-11T06:10:40.912Z,58.70
2019-05-11T06:13:09.264Z,58.70
2019-05-11T06:15:37.637Z,58.70
2019-05-11T06:18:06.004Z,58.60
2019-05-11T06:20:34.374Z,58.80
2019-05-11T06:23:02.737Z,58.90
2019-05-11T06:25:31.157Z,59.00
2019-05-11T06:27:59.540Z,59.00
2019-05-11T06:30:27.880Z,59.00
2019-05-11T06:32:56.235Z,58.80
2019-05-11T06:35:24.618Z,58.70
2019-05-11T06:37:52.962Z,58.60
2019-05-11T06:40:21.326Z,58.60
2019-05-11T06:42:49.694Z,58.70
2019-05-11T06:45:18.058Z,58.70
2019-05-11T06:47:46.409Z,58.80
2019-05-11T06:50:14.874Z,58.70
2019-05-11T06:52:43.239Z,58.80
2019-05-11T06:55:11.587Z,58.80
2019-05-11T06:57:39.961Z,58.80
2019-05-11T07:00:09.221Z,58.90
2019-05-11T07:02:37.660Z,58.90
2019-05-11T07:05:07.056Z,59.00
2019-05-11T07:07:47.214Z,59.60
2019-05-11T07:10:06.872Z,59.10
2019-05-11T07:12:35.225Z,59.10
2019-05-11T07:15:09.569Z,59.50
2019-05-11T07:17:38.076Z,59.20
2019-05-11T07:20:09.698Z,59.10
2019-05-11T07:22:38.053Z,59.00
2019-05-11T07:25:07.090Z,59.10
2019-05-11T07:27:35.442Z,59.20
2019-05-11T07:30:06.332Z,59.10
2019-05-11T07:32:35.067Z,59.20
2019-05-11T07:35:03.889Z,59.20
2019-05-11T07:37:32.235Z,59.20
2019-05-11T07:40:00.621Z,59.20
2019-05-11T07:42:28.996Z,59.30
2019-05-11T07:44:58.278Z,59.20
2019-05-11T07:47:27.764Z,59.30
2019-05-11T07:49:57.893Z,59.20
2019-05-11T07:52:28.593Z,59.20
2019-05-11T07:54:58.513Z,59.20
2019-05-11T07:57:28.378Z,59.10
2019-05-11T07:59:57.866Z,59.20
2019-05-11T08:02:28.539Z,59.10
2019-05-11T08:04:58.531Z,59.20
2019-05-11T08:07:28.540Z,59.10
2019-05-11T08:09:58.560Z,59.10
2019-05-11T08:12:28.517Z,59.20
2019-05-11T08:15:05.968Z,59.30
2019-05-11T08:17:28.590Z,59.50
2019-05-11T08:19:58.089Z,59.50
2019-05-11T08:22:28.418Z,59.40
2019-05-11T08:24:58.573Z,59.70
2019-05-11T08:27:28.544Z,58.90
2019-05-11T08:29:58.016Z,58.80
2019-05-11T08:32:28.680Z,58.80
2019-05-11T08:34:58.051Z,58.80
2019-05-11T08:37:28.386Z,58.90
2019-05-11T08:39:58.493Z,58.90
2019-05-11T08:42:28.811Z,58.90
2019-05-11T08:45:11.727Z,58.90
2019-05-11T08:47:28.366Z,59.00
2019-05-11T08:49:58.858Z,59.00
2019-05-11T08:52:28.055Z,59.00
2019-05-11T08:54:57.784Z,59.00
2019-05-11T08:57:28.360Z,58.80
2019-05-11T08:59:57.892Z,58.60
2019-05-11T09:02:27.817Z,58.70
2019-05-11T09:04:58.700Z,58.60
2019-05-11T09:07:27.847Z,58.60
2019-05-11T09:09:58.372Z,58.80
2019-05-11T09:12:28.619Z,58.70
2019-05-11T09:14:58.101Z,58.50
2019-05-11T09:17:28.708Z,58.60
2019-05-11T09:19:58.160Z,58.70
2019-05-11T09:22:28.332Z,58.50
2019-05-11T09:24:58.271Z,58.50
2019-05-11T09:27:28.637Z,58.50
2019-05-11T09:29:58.749Z,58.60
2019-05-11T09:32:28.531Z,58.70
2019-05-11T09:34:57.980Z,58.80
2019-05-11T09:37:27.774Z,59.00
2019-05-11T09:39:58.410Z,58.90
2019-05-11T09:42:28.406Z,58.90
2019-05-11T09:44:57.738Z,58.90
2019-05-11T09:47:27.949Z,58.70
2019-05-11T09:49:58.267Z,58.60
2019-05-11T09:52:27.915Z,58.40
2019-05-11T09:54:58.014Z,58.40
2019-05-11T09:57:27.626Z,58.50
2019-05-11T09:59:58.228Z,58.30
2019-05-11T10:02:27.945Z,58.30
2019-05-11T10:04:57.792Z,58.40
2019-05-11T10:07:28.440Z,58.40
2019-05-11T10:09:58.348Z,58.50
2019-05-11T10:12:28.471Z,58.60
2019-05-11T10:14:56.420Z,58.50
2019-05-11T10:17:24.788Z,58.40
2019-05-11T10:19:53.132Z,58.20
2019-05-11T10:22:21.505Z,58.10
2019-05-11T10:24:49.859Z,58.60
2019-05-11T10:27:18.868Z,57.90
2019-05-11T10:29:48.382Z,58.10
2019-05-11T10:32:18.335Z,58.60
2019-05-11T10:34:47.768Z,58.00
2019-05-11T10:37:17.653Z,58.10
2019-05-11T10:39:48.671Z,58.20
2019-05-11T10:42:17.970Z,58.10
2019-05-11T10:44:47.884Z,57.90
2019-05-11T10:47:18.454Z,57.60
2019-05-11T10:49:48.477Z,57.40
2019-05-11T10:52:18.013Z,57.00
2019-05-11T10:54:47.800Z,56.80
2019-05-11T10:57:18.725Z,56.70
2019-05-11T10:59:48.693Z,57.00
2019-05-11T11:02:18.361Z,57.20
2019-05-11T11:04:48.445Z,57.30
2019-05-11T11:07:19.277Z,57.50
2019-05-11T11:09:48.906Z,57.40
2019-05-11T11:12:18.709Z,57.20
2019-05-11T11:14:48.209Z,56.90
2019-05-11T11:17:18.939Z,56.80
2019-05-11T11:19:48.662Z,56.90
2019-05-11T11:22:35.080Z,56.70
2019-05-11T11:24:48.169Z,56.70
2019-05-11T11:27:18.487Z,56.80
2019-05-11T11:29:47.586Z,57.20
2019-05-11T11:32:18.260Z,57.20
2019-05-11T11:34:48.349Z,56.70
2019-05-11T11:37:17.578Z,56.60
2019-05-11T11:39:47.637Z,56.70
2019-05-11T11:42:17.861Z,56.80
2019-05-11T11:44:48.241Z,56.90
2019-05-11T11:47:21.275Z,56.90
2019-05-11T11:49:47.560Z,56.80
2019-05-11T11:52:16.072Z,56.60
2019-05-11T11:54:44.437Z,56.50
2019-05-11T11:57:12.790Z,56.40
2019-05-11T11:59:41.162Z,56.20
2019-05-11T12:02:09.530Z,56.20
2019-05-11T12:04:38.874Z,56.30
2019-05-11T12:07:08.504Z,56.70
2019-05-11T12:09:37.804Z,57.00
2019-05-11T12:12:07.855Z,57.10
2019-05-11T12:14:38.503Z,57.00
2019-05-11T12:17:10.475Z,56.70
2019-05-11T12:19:38.257Z,56.30
2019-05-11T12:22:08.626Z,55.50
2019-05-11T12:24:37.558Z,55.00
2019-05-11T12:27:07.716Z,54.90
2019-05-11T12:29:38.400Z,54.80
2019-05-11T12:32:08.260Z,54.70
2019-05-11T12:34:37.534Z,54.80
2019-05-11T12:37:08.387Z,54.70
2019-05-11T12:39:38.509Z,54.70
2019-05-11T12:42:08.411Z,54.80
2019-05-11T12:44:36.123Z,54.80
2019-05-11T12:47:18.466Z,54.90
2019-05-11T12:49:34.492Z,55.40
2019-05-11T12:52:02.857Z,54.90
2019-05-11T12:54:33.898Z,54.90
2019-05-11T12:57:01.230Z,54.90
2019-05-11T12:59:29.593Z,54.60
2019-05-11T13:01:59.045Z,54.50
2019-05-11T13:04:28.257Z,54.60
2019-05-11T13:06:58.193Z,54.80
2019-05-11T13:09:28.615Z,55.00
2019-05-11T13:11:58.638Z,55.20
2019-05-11T13:14:27.736Z,55.10
2019-05-11T13:16:58.754Z,55.00
2019-05-11T13:19:28.191Z,54.90
2019-05-11T13:21:58.763Z,54.80
2019-05-11T13:24:28.233Z,54.90
2019-05-11T13:26:57.035Z,54.80
2019-05-11T13:29:28.273Z,54.40
2019-05-11T13:31:56.233Z,54.20
2019-05-11T13:34:24.588Z,54.00
2019-05-11T13:36:52.941Z,54.10
2019-05-11T13:39:21.308Z,54.10
2019-05-11T13:41:49.675Z,54.10
2019-05-11T13:44:18.584Z,54.10
2019-05-11T13:46:48.169Z,54.00
2019-05-11T13:49:17.886Z,53.90
2019-05-11T13:51:48.093Z,53.80
2019-05-11T13:54:18.429Z,53.90
2019-05-11T13:56:48.383Z,53.70
2019-05-11T13:59:18.612Z,53.60
2019-05-11T14:01:47.776Z,53.50
2019-05-11T14:04:18.172Z,53.60
2019-05-11T14:06:48.178Z,53.70
2019-05-11T14:09:18.503Z,53.70
2019-05-11T14:11:47.883Z,53.80
2019-05-11T14:14:18.369Z,53.80
2019-05-11T14:16:48.493Z,53.90
2019-05-11T14:19:17.956Z,54.90
2019-05-11T14:21:48.778Z,54.40
2019-05-11T14:24:18.374Z,54.50
2019-05-11T14:26:48.638Z,54.50
2019-05-11T14:29:17.769Z,54.60
2019-05-11T14:31:48.173Z,54.60
2019-05-11T14:34:18.171Z,54.70
2019-05-11T14:36:47.973Z,54.50
2019-05-11T14:39:18.782Z,54.30
2019-05-11T14:41:48.582Z,54.10
2019-05-11T14:44:18.108Z,54.10
2019-05-11T14:46:47.788Z,54.10
2019-05-11T14:49:18.216Z,54.20
2019-05-11T14:51:48.572Z,54.30
2019-05-11T14:54:18.562Z,54.30
2019-05-11T14:56:48.104Z,54.30
2019-05-11T14:59:18.388Z,54.30
2019-05-11T15:01:48.800Z,54.20
2019-05-11T15:04:18.145Z,54.30
2019-05-11T15:06:48.819Z,54.20
2019-05-11T15:09:18.345Z,54.20
2019-05-11T15:11:48.084Z,54.20
2019-05-11T15:14:19.728Z,54.30
2019-05-11T15:16:48.544Z,54.10
2019-05-11T15:19:18.426Z,54.00
2019-05-11T15:21:47.571Z,53.70
2019-05-11T15:24:18.315Z,53.60
2019-05-11T15:26:48.446Z,53.30
2019-05-11T15:29:18.085Z,53.30
2019-05-11T15:31:48.386Z,53.30
2019-05-11T15:34:18.314Z,53.20
2019-05-11T15:36:48.812Z,53.30
2019-05-11T15:39:18.215Z,53.30
2019-05-11T15:41:48.036Z,53.40
2019-05-11T15:44:18.282Z,53.60
2019-05-11T15:46:47.991Z,53.60
2019-05-11T15:49:17.978Z,53.60
2019-05-11T15:51:48.855Z,53.60
2019-05-11T15:54:18.524Z,53.50
2019-05-11T15:56:46.633Z,53.40
2019-05-11T15:59:14.978Z,53.50
2019-05-11T16:01:43.345Z,53.30
2019-05-11T16:04:11.720Z,53.30
2019-05-11T16:06:40.072Z,53.10
2019-05-11T16:09:08.635Z,52.70
2019-05-11T16:11:38.890Z,52.80
2019-05-11T16:14:08.645Z,52.80
2019-05-11T16:16:38.977Z,52.70
2019-05-11T16:19:14.429Z,52.60
2019-05-11T16:21:38.244Z,52.60
2019-05-11T16:24:08.033Z,52.50
2019-05-11T16:26:36.643Z,52.50
2019-05-11T16:29:05.002Z,52.40
2019-05-11T16:31:33.360Z,52.40
2019-05-11T16:34:02.781Z,52.20
2019-05-11T16:36:31.368Z,52.10
2019-05-11T16:38:59.732Z,52.20
2019-05-11T16:41:29.186Z,52.20
2019-05-11T16:43:58.530Z,52.20
2019-05-11T16:46:28.387Z,52.10
2019-05-11T16:48:57.816Z,52.00
2019-05-11T16:51:28.253Z,52.00
2019-05-11T16:53:58.599Z,51.90
2019-05-11T16:56:26.346Z,51.90
2019-05-11T16:58:55.014Z,52.60
2019-05-11T17:01:23.548Z,52.00
2019-05-11T17:03:51.913Z,52.00
2019-05-11T17:06:20.274Z,52.00
2019-05-11T17:08:48.812Z,52.00
2019-05-11T17:11:18.638Z,51.90
2019-05-11T17:13:48.332Z,51.80
2019-05-11T17:16:17.920Z,51.80
2019-05-11T17:18:48.378Z,51.80
2019-05-11T17:21:18.272Z,51.80
2019-05-11T17:23:48.825Z,51.80
2019-05-11T17:26:18.799Z,51.70
2019-05-11T17:28:48.801Z,51.70
2019-05-11T17:31:18.845Z,51.60
2019-05-11T17:33:47.633Z,51.60
2019-05-11T17:36:18.498Z,51.60
2019-05-11T17:38:47.849Z,51.60
2019-05-11T17:41:16.418Z,51.50
2019-05-11T17:43:45.053Z,51.50
2019-05-11T17:46:13.429Z,51.50
2019-05-11T17:48:41.753Z,51.50
2019-05-11T17:51:20.457Z,51.40
2019-05-11T17:53:40.132Z,51.40
2019-05-11T17:56:08.837Z,51.40
2019-05-11T17:58:37.876Z,51.40
2019-05-11T18:01:09.215Z,51.40
2019-05-11T18:03:38.472Z,51.30
2019-05-11T18:06:08.462Z,51.30
2019-05-11T18:08:37.073Z,51.30
2019-05-11T18:11:08.112Z,51.30
2019-05-11T18:13:35.442Z,51.30
2019-05-11T18:16:03.866Z,51.30
2019-05-11T18:18:32.237Z,51.30
2019-05-11T18:21:00.601Z,51.20
2019-05-11T18:23:28.963Z,51.20
2019-05-11T18:25:57.311Z,51.20
2019-05-11T18:28:25.752Z,51.20
2019-05-11T18:30:54.121Z,51.20
2019-05-11T18:33:22.475Z,51.50
2019-05-11T18:35:50.851Z,51.20
2019-05-11T18:38:19.212Z,51.30
2019-05-11T18:40:48.598Z,51.40
2019-05-11T18:43:18.862Z,51.30
2019-05-11T18:45:48.841Z,51.20
2019-05-11T18:48:18.568Z,50.90
2019-05-11T18:50:49.118Z,50.70
2019-05-11T18:53:18.670Z,50.50
2019-05-11T18:55:48.656Z,50.30
2019-05-11T18:58:18.448Z,50.20
2019-05-11T19:00:48.833Z,50.10
2019-05-11T19:03:19.287Z,50.10
2019-05-11T19:05:48.079Z,50.10
2019-05-11T19:08:18.809Z,50.20
2019-05-11T19:10:48.785Z,50.20
2019-05-11T19:13:16.787Z,50.20
2019-05-11T19:15:45.163Z,50.20
2019-05-11T19:18:13.522Z,50.30
2019-05-11T19:20:45.892Z,50.30
2019-05-11T19:23:11.885Z,50.20
2019-05-11T19:25:40.257Z,50.30
2019-05-11T19:28:08.714Z,50.20
2019-05-11T19:30:38.296Z,50.30
2019-05-11T19:33:10.711Z,50.20
2019-05-11T19:35:37.842Z,50.30
2019-05-11T19:38:08.670Z,50.30
2019-05-11T19:40:38.442Z,50.10
2019-05-11T19:43:08.249Z,50.20
2019-05-11T19:45:38.396Z,50.20
2019-05-11T19:48:08.424Z,50.10
2019-05-11T19:50:40.325Z,50.10
2019-05-11T19:53:08.461Z,50.10
2019-05-11T19:55:36.976Z,50.10
2019-05-11T19:58:05.341Z,50.10
2019-05-11T20:00:33.693Z,50.10
2019-05-11T20:03:02.068Z,50.10
2019-05-11T20:05:30.693Z,50.10
2019-05-11T20:07:59.100Z,50.10
2019-05-11T20:10:27.855Z,50.10
2019-05-11T20:12:58.552Z,50.10
2019-05-11T20:15:26.296Z,50.10
2019-05-11T20:17:54.657Z,50.00
2019-05-11T20:20:23.028Z,50.00
2019-05-11T20:22:51.385Z,50.00
2019-05-11T20:25:19.780Z,50.00
2019-05-11T20:27:48.719Z,50.00
2019-05-11T20:30:18.417Z,50.10
2019-05-11T20:32:48.415Z,50.00
2019-05-11T20:35:17.588Z,49.90
2019-05-11T20:37:45.937Z,50.00
2019-05-11T20:40:14.319Z,50.00
2019-05-11T20:42:42.665Z,49.90
2019-05-11T20:45:11.019Z,49.90
2019-05-11T20:47:39.380Z,49.80
2019-05-11T20:50:08.019Z,49.80
2019-05-11T20:52:38.784Z,49.80
2019-05-11T20:55:08.587Z,49.80
2019-05-11T20:57:38.668Z,49.90
2019-05-11T21:00:08.310Z,49.90
2019-05-11T21:02:38.067Z,49.90
2019-05-11T21:05:09.056Z,49.80
2019-05-11T21:07:38.953Z,49.80
2019-05-11T21:10:09.029Z,49.70
2019-05-11T21:12:38.596Z,49.70
2019-05-11T21:15:08.331Z,49.70
2019-05-11T21:17:36.695Z,49.80
2019-05-11T21:20:10.857Z,49.80
2019-05-11T21:22:40.703Z,49.80
2019-05-11T21:25:09.391Z,49.80
2019-05-11T21:27:38.392Z,49.80
2019-05-11T21:30:09.178Z,49.80
2019-05-11T21:32:38.785Z,49.80
2019-05-11T21:35:08.909Z,49.80
2019-05-11T21:37:38.805Z,49.80
2019-05-11T21:40:08.551Z,49.80
2019-05-11T21:42:38.930Z,50.00
2019-05-11T21:45:09.068Z,50.50
2019-05-11T21:47:38.620Z,50.10
2019-05-11T21:50:08.838Z,50.00
2019-05-11T21:52:38.362Z,50.10
2019-05-11T21:55:09.439Z,50.20
2019-05-11T21:57:38.048Z,50.10
2019-05-11T22:00:09.928Z,50.20
2019-05-11T22:02:38.782Z,50.10
2019-05-11T22:05:08.122Z,50.20
2019-05-11T22:07:41.340Z,50.10
2019-05-11T22:10:08.849Z,50.10
2019-05-11T22:12:38.796Z,50.10
2019-05-11T22:15:09.530Z,50.10
2019-05-11T22:17:39.307Z,50.20
2019-05-11T22:20:09.160Z,50.20
2019-05-11T22:22:38.985Z,50.20
2019-05-11T22:25:08.648Z,50.20
2019-05-11T22:27:38.733Z,50.20
2019-05-11T22:30:08.753Z,50.20
2019-05-11T22:32:38.407Z,50.20
2019-05-11T22:35:10.260Z,50.20
2019-05-11T22:37:39.178Z,50.20
2019-05-11T22:40:08.407Z,50.30
2019-05-11T22:42:36.973Z,50.20
2019-05-11T22:45:08.558Z,50.20
2019-05-11T22:47:39.177Z,50.10
2019-05-11T22:50:07.975Z,50.20
2019-05-11T22:52:37.397Z,50.20
2019-05-11T22:55:11.116Z,50.20
2019-05-11T22:57:38.084Z,50.20
2019-05-11T23:00:08.832Z,50.20
2019-05-11T23:02:38.019Z,50.30
2019-05-11T23:05:08.967Z,50.30
2019-05-11T23:07:41.310Z,50.30
2019-05-11T23:10:09.546Z,50.30
2019-05-11T23:12:44.072Z,50.30
2019-05-11T23:15:15.383Z,50.30
2019-05-11T23:17:43.731Z,50.30
2019-05-11T23:20:12.184Z,50.30
2019-05-11T23:22:57.993Z,50.30
2019-05-11T23:25:19.416Z,50.30
2019-05-11T23:27:48.439Z,50.40
2019-05-11T23:30:19.704Z,50.40
2019-05-11T23:32:48.559Z,50.40
2019-05-11T23:35:18.819Z,50.40
2019-05-11T23:37:49.450Z,50.40
2019-05-11T23:40:18.226Z,50.40
2019-05-11T23:42:49.072Z,50.40
2019-05-11T23:45:18.925Z,50.40
2019-05-11T23:47:48.682Z,50.50
2019-05-11T23:50:18.878Z,50.40
2019-05-11T23:52:48.797Z,50.40
2019-05-11T23:55:19.111Z,50.40
2019-05-11T23:57:48.551Z,50.40
